Heat Index SAI AWOS Graphical Display Untitled Document
Bertrand Chaffee Hospital Heliport (2NK6) Springville, New York, USA
140
06:43
24/07/2016
00
N/A
N/A
30.04
N/A
1420
65(F), 18(C)
61(F), 16(C)
65 F
88%
CLR
10
N/A
0"
N/A
06:43 zulu Wind Calm, Altimeter 30.04
METAR K2NK6 240643Z AUTO 00000KT 10SM CLR 18/16 A3004 A02 P0000
METAR:
FAA Disclaimer--Advisory Use ONLY, not for flight info--
INFO:
Wind Direction:
Wind Speed:
Wind Gust:
Wind Variable:
Altimeter:
Dens Alt:
Elev:
Temp:
Dwpt:
Wind Chill
Rel Humidity:
Ceiling:
Visibility:
Prsnt Wea:
PCPN:
Remarks:
How to read the WebPage